Terminal Aerodrome Forecast
Issued by NWS

Home | Current Version | Previous Version | Text Only | Print | Product List | Glossary On
Versions: 1 2 3 4 5 6 7 8 9 10 11 12 13 14
798
FTUS44 KBMX 300520
TAFTCL
TAF
KTCL 300520Z 3006/0106 15007KT P6SM SCT025 BKN035 BKN250
      WS019/17041KT
     FM300700 14009KT P6SM BKN025 OVC040 WS019/17043KT
     FM301100 14010KT P6SM BKN015 OVC030 WS019/17047KT
     FM301500 16018G28KT P6SM BKN025
     FM301900 18018G29KT P6SM VCTS BKN035CB=

USA.gov is the U.S. government's official web portal to all federal, state and local government web resources and services.